sensor_id;sensor_type;location;lat;lon;timestamp;P1;durP1;ratioP1;P2;durP2;ratioP2
38901;SDS011;24661;53.566;9.910;2022-10-31T00:01:09;31.20;;;18.97;;
38901;SDS011;24661;53.566;9.910;2022-10-31T00:03:36;29.80;;;16.90;;
38901;SDS011;24661;53.566;9.910;2022-10-31T00:06:01;24.73;;;15.53;;
38901;SDS011;24661;53.566;9.910;2022-10-31T00:08:27;27.40;;;16.87;;
38901;SDS011;24661;53.566;9.910;2022-10-31T00:10:53;29.90;;;16.93;;
38901;SDS011;24661;53.566;9.910;2022-10-31T00:13:18;26.67;;;16.53;;
38901;SDS011;24661;53.566;9.910;2022-10-31T00:15:44;32.47;;;17.30;;
38901;SDS011;24661;53.566;9.910;2022-10-31T00:18:10;27.53;;;17.27;;
38901;SDS011;24661;53.566;9.910;2022-10-31T00:20:36;30.97;;;17.30;;
38901;SDS011;24661;53.566;9.910;2022-10-31T00:23:02;34.23;;;18.70;;
38901;SDS011;24661;53.566;9.910;2022-10-31T00:25:29;30.00;;;17.67;;
38901;SDS011;24661;53.566;9.910;2022-10-31T00:27:59;23.60;;;15.57;;
38901;SDS011;24661;53.566;9.910;2022-10-31T00:30:24;28.43;;;17.80;;
38901;SDS011;24661;53.566;9.910;2022-10-31T00:32:50;31.40;;;17.97;;
38901;SDS011;24661;53.566;9.910;2022-10-31T00:35:16;26.87;;;16.77;;
38901;SDS011;24661;53.566;9.910;2022-10-31T00:37:47;26.53;;;17.23;;
38901;SDS011;24661;53.566;9.910;2022-10-31T00:40:13;30.30;;;18.60;;
38901;SDS011;24661;53.566;9.910;2022-10-31T00:42:39;27.60;;;19.13;;
38901;SDS011;24661;53.566;9.910;2022-10-31T00:45:07;23.30;;;17.00;;
38901;SDS011;24661;53.566;9.910;2022-10-31T00:47:33;26.77;;;17.43;;
38901;SDS011;24661;53.566;9.910;2022-10-31T00:49:59;30.73;;;16.17;;
38901;SDS011;24661;53.566;9.910;2022-10-31T00:52:25;27.17;;;16.90;;
38901;SDS011;24661;53.566;9.910;2022-10-31T00:54:50;31.03;;;17.80;;
38901;SDS011;24661;53.566;9.910;2022-10-31T00:57:16;27.13;;;16.60;;
38901;SDS011;24661;53.566;9.910;2022-10-31T00:59:41;27.97;;;16.60;;
38901;SDS011;24661;53.566;9.910;2022-10-31T01:02:07;28.73;;;17.27;;
38901;SDS011;24661;53.566;9.910;2022-10-31T01:04:33;25.23;;;16.90;;
38901;SDS011;24661;53.566;9.910;2022-10-31T01:06:58;31.13;;;17.87;;
38901;SDS011;24661;53.566;9.910;2022-10-31T01:09:24;34.60;;;17.63;;
38901;SDS011;24661;53.566;9.910;2022-10-31T01:11:49;27.97;;;16.77;;
38901;SDS011;24661;53.566;9.910;2022-10-31T01:14:15;29.13;;;16.60;;
38901;SDS011;24661;53.566;9.910;2022-10-31T01:16:40;26.97;;;17.77;;
38901;SDS011;24661;53.566;9.910;2022-10-31T01:19:06;25.60;;;16.83;;
38901;SDS011;24661;53.566;9.910;2022-10-31T01:21:32;31.90;;;17.63;;
38901;SDS011;24661;53.566;9.910;2022-10-31T01:23:57;31.23;;;17.60;;
38901;SDS011;24661;53.566;9.910;2022-10-31T01:26:24;31.27;;;16.73;;
38901;SDS011;24661;53.566;9.910;2022-10-31T01:28:54;34.40;;;18.60;;
38901;SDS011;24661;53.566;9.910;2022-10-31T01:31:23;32.30;;;17.47;;
38901;SDS011;24661;53.566;9.910;2022-10-31T01:33:50;24.70;;;16.80;;
38901;SDS011;24661;53.566;9.910;2022-10-31T01:38:52;33.37;;;18.00;;
38901;SDS011;24661;53.566;9.910;2022-10-31T01:41:24;26.93;;;17.30;;
38901;SDS011;24661;53.566;9.910;2022-10-31T01:46:25;31.07;;;19.03;;
38901;SDS011;24661;53.566;9.910;2022-10-31T01:49:02;32.33;;;18.67;;
38901;SDS011;24661;53.566;9.910;2022-10-31T01:51:32;30.80;;;18.87;;
38901;SDS011;24661;53.566;9.910;2022-10-31T01:54:03;41.70;;;20.93;;
38901;SDS011;24661;53.566;9.910;2022-10-31T01:56:32;30.60;;;18.27;;
38901;SDS011;24661;53.566;9.910;2022-10-31T01:58:59;31.70;;;19.17;;
38901;SDS011;24661;53.566;9.910;2022-10-31T02:01:26;38.00;;;19.97;;
38901;SDS011;24661;53.566;9.910;2022-10-31T02:03:53;39.17;;;21.50;;
38901;SDS011;24661;53.566;9.910;2022-10-31T02:09:03;38.93;;;20.87;;
38901;SDS011;24661;53.566;9.910;2022-10-31T02:11:30;33.37;;;20.03;;
38901;SDS011;24661;53.566;9.910;2022-10-31T02:13:58;36.57;;;19.93;;
38901;SDS011;24661;53.566;9.910;2022-10-31T02:16:25;35.60;;;19.97;;
38901;SDS011;24661;53.566;9.910;2022-10-31T02:18:50;34.67;;;19.43;;
38901;SDS011;24661;53.566;9.910;2022-10-31T02:24:07;33.80;;;20.73;;
38901;SDS011;24661;53.566;9.910;2022-10-31T02:26:58;35.93;;;19.37;;
38901;SDS011;24661;53.566;9.910;2022-10-31T02:32:25;32.47;;;20.43;;
38901;SDS011;24661;53.566;9.910;2022-10-31T02:35:21;35.93;;;20.00;;
38901;SDS011;24661;53.566;9.910;2022-10-31T02:38:24;36.53;;;20.30;;
38901;SDS011;24661;53.566;9.910;2022-10-31T02:41:05;40.63;;;22.07;;
38901;SDS011;24661;53.566;9.910;2022-10-31T02:43:58;31.43;;;19.47;;
38901;SDS011;24661;53.566;9.910;2022-10-31T02:46:44;38.83;;;20.90;;
38901;SDS011;24661;53.566;9.910;2022-10-31T02:49:32;34.20;;;18.90;;
38901;SDS011;24661;53.566;9.910;2022-10-31T02:52:13;38.37;;;21.50;;
38901;SDS011;24661;53.566;9.910;2022-10-31T02:54:43;32.53;;;20.27;;
38901;SDS011;24661;53.566;9.910;2022-10-31T02:57:10;42.43;;;23.13;;
38901;SDS011;24661;53.566;9.910;2022-10-31T02:59:38;32.93;;;20.43;;
38901;SDS011;24661;53.566;9.910;2022-10-31T03:05:12;37.47;;;21.17;;
38901;SDS011;24661;53.566;9.910;2022-10-31T03:15:37;37.00;;;22.37;;
38901;SDS011;24661;53.566;9.910;2022-10-31T03:20:41;41.30;;;21.27;;
38901;SDS011;24661;53.566;9.910;2022-10-31T03:23:19;41.27;;;22.70;;
38901;SDS011;24661;53.566;9.910;2022-10-31T03:25:49;42.90;;;22.73;;
38901;SDS011;24661;53.566;9.910;2022-10-31T03:28:18;45.03;;;23.47;;
38901;SDS011;24661;53.566;9.910;2022-10-31T03:30:51;53.20;;;25.53;;
38901;SDS011;24661;53.566;9.910;2022-10-31T03:33:20;42.80;;;23.23;;
38901;SDS011;24661;53.566;9.910;2022-10-31T03:35:52;46.87;;;23.87;;
38901;SDS011;24661;53.566;9.910;2022-10-31T03:38:20;46.40;;;24.37;;
38901;SDS011;24661;53.566;9.910;2022-10-31T03:40:47;43.00;;;23.27;;
38901;SDS011;24661;53.566;9.910;2022-10-31T03:43:16;50.80;;;23.47;;
38901;SDS011;24661;53.566;9.910;2022-10-31T03:45:45;42.97;;;25.03;;
38901;SDS011;24661;53.566;9.910;2022-10-31T03:48:12;42.63;;;22.13;;
38901;SDS011;24661;53.566;9.910;2022-10-31T03:50:45;46.07;;;23.63;;
38901;SDS011;24661;53.566;9.910;2022-10-31T03:53:24;44.03;;;22.33;;
38901;SDS011;24661;53.566;9.910;2022-10-31T03:56:01;49.60;;;23.33;;
38901;SDS011;24661;53.566;9.910;2022-10-31T03:58:36;46.70;;;24.20;;
38901;SDS011;24661;53.566;9.910;2022-10-31T04:01:08;49.57;;;25.03;;
38901;SDS011;24661;53.566;9.910;2022-10-31T04:03:38;50.97;;;24.87;;
38901;SDS011;24661;53.566;9.910;2022-10-31T04:06:08;50.30;;;25.30;;
38901;SDS011;24661;53.566;9.910;2022-10-31T04:08:44;48.27;;;25.30;;
38901;SDS011;24661;53.566;9.910;2022-10-31T04:11:13;62.77;;;27.10;;
38901;SDS011;24661;53.566;9.910;2022-10-31T04:13:41;54.60;;;28.03;;
38901;SDS011;24661;53.566;9.910;2022-10-31T04:16:09;61.33;;;27.67;;
38901;SDS011;24661;53.566;9.910;2022-10-31T04:18:36;55.53;;;25.07;;
38901;SDS011;24661;53.566;9.910;2022-10-31T04:21:03;69.30;;;29.20;;
38901;SDS011;24661;53.566;9.910;2022-10-31T04:23:31;56.73;;;26.03;;
38901;SDS011;24661;53.566;9.910;2022-10-31T04:25:57;49.73;;;23.20;;
38901;SDS011;24661;53.566;9.910;2022-10-31T04:28:22;59.47;;;26.50;;
38901;SDS011;24661;53.566;9.910;2022-10-31T04:30:48;58.53;;;26.27;;
38901;SDS011;24661;53.566;9.910;2022-10-31T04:33:14;48.47;;;24.63;;
38901;SDS011;24661;53.566;9.910;2022-10-31T04:35:39;55.33;;;25.87;;
38901;SDS011;24661;53.566;9.910;2022-10-31T04:38:05;59.37;;;26.60;;
38901;SDS011;24661;53.566;9.910;2022-10-31T04:40:31;59.87;;;27.53;;
38901;SDS011;24661;53.566;9.910;2022-10-31T04:42:56;49.33;;;24.97;;
38901;SDS011;24661;53.566;9.910;2022-10-31T04:45:22;57.93;;;27.73;;
38901;SDS011;24661;53.566;9.910;2022-10-31T04:47:47;52.50;;;26.07;;
38901;SDS011;24661;53.566;9.910;2022-10-31T04:50:13;55.70;;;28.57;;
38901;SDS011;24661;53.566;9.910;2022-10-31T04:52:42;62.33;;;29.17;;
38901;SDS011;24661;53.566;9.910;2022-10-31T04:55:10;53.07;;;27.60;;
38901;SDS011;24661;53.566;9.910;2022-10-31T04:57:46;59.60;;;29.60;;
38901;SDS011;24661;53.566;9.910;2022-10-31T05:00:14;60.57;;;28.97;;
38901;SDS011;24661;53.566;9.910;2022-10-31T05:02:44;63.27;;;29.00;;
38901;SDS011;24661;53.566;9.910;2022-10-31T05:05:11;68.73;;;30.17;;
38901;SDS011;24661;53.566;9.910;2022-10-31T05:07:38;64.70;;;30.90;;
38901;SDS011;24661;53.566;9.910;2022-10-31T05:10:05;55.53;;;28.87;;
38901;SDS011;24661;53.566;9.910;2022-10-31T05:12:31;64.03;;;30.00;;
38901;SDS011;24661;53.566;9.910;2022-10-31T05:14:58;61.33;;;28.60;;
38901;SDS011;24661;53.566;9.910;2022-10-31T05:17:23;62.80;;;30.10;;
38901;SDS011;24661;53.566;9.910;2022-10-31T05:19:49;57.20;;;25.27;;
38901;SDS011;24661;53.566;9.910;2022-10-31T05:22:14;54.87;;;26.73;;
38901;SDS011;24661;53.566;9.910;2022-10-31T05:24:40;48.27;;;23.40;;
38901;SDS011;24661;53.566;9.910;2022-10-31T05:27:05;47.70;;;23.57;;
38901;SDS011;24661;53.566;9.910;2022-10-31T05:29:31;50.60;;;24.63;;
38901;SDS011;24661;53.566;9.910;2022-10-31T05:31:58;55.23;;;23.50;;
38901;SDS011;24661;53.566;9.910;2022-10-31T05:34:24;49.83;;;23.97;;
38901;SDS011;24661;53.566;9.910;2022-10-31T05:36:49;58.97;;;26.47;;
38901;SDS011;24661;53.566;9.910;2022-10-31T05:39:16;53.20;;;27.00;;
38901;SDS011;24661;53.566;9.910;2022-10-31T05:41:41;50.63;;;26.87;;
38901;SDS011;24661;53.566;9.910;2022-10-31T05:44:07;52.63;;;27.77;;
38901;SDS011;24661;53.566;9.910;2022-10-31T05:46:33;61.57;;;29.17;;
38901;SDS011;24661;53.566;9.910;2022-10-31T05:48:58;60.50;;;29.47;;
38901;SDS011;24661;53.566;9.910;2022-10-31T05:51:24;58.43;;;28.27;;
38901;SDS011;24661;53.566;9.910;2022-10-31T05:53:49;60.57;;;28.67;;
38901;SDS011;24661;53.566;9.910;2022-10-31T05:56:15;67.03;;;28.83;;
38901;SDS011;24661;53.566;9.910;2022-10-31T05:58:40;58.50;;;27.73;;
38901;SDS011;24661;53.566;9.910;2022-10-31T06:01:06;53.70;;;28.53;;
38901;SDS011;24661;53.566;9.910;2022-10-31T06:03:32;66.63;;;29.50;;
38901;SDS011;24661;53.566;9.910;2022-10-31T06:05:57;53.73;;;28.43;;
38901;SDS011;24661;53.566;9.910;2022-10-31T06:08:23;57.73;;;29.57;;
38901;SDS011;24661;53.566;9.910;2022-10-31T06:10:48;64.07;;;28.73;;
38901;SDS011;24661;53.566;9.910;2022-10-31T06:13:14;58.40;;;28.33;;
38901;SDS011;24661;53.566;9.910;2022-10-31T06:15:41;64.93;;;27.27;;
38901;SDS011;24661;53.566;9.910;2022-10-31T06:18:08;53.10;;;26.43;;
38901;SDS011;24661;53.566;9.910;2022-10-31T06:20:34;49.57;;;25.77;;
38901;SDS011;24661;53.566;9.910;2022-10-31T06:22:59;46.43;;;23.63;;
38901;SDS011;24661;53.566;9.910;2022-10-31T06:25:25;50.83;;;25.73;;
38901;SDS011;24661;53.566;9.910;2022-10-31T06:27:51;47.90;;;25.47;;
38901;SDS011;24661;53.566;9.910;2022-10-31T06:30:17;41.93;;;23.83;;
38901;SDS011;24661;53.566;9.910;2022-10-31T06:32:43;58.03;;;26.80;;
38901;SDS011;24661;53.566;9.910;2022-10-31T06:35:08;41.17;;;22.03;;
38901;SDS011;24661;53.566;9.910;2022-10-31T06:37:34;51.47;;;22.97;;
38901;SDS011;24661;53.566;9.910;2022-10-31T06:40:00;41.87;;;22.20;;
38901;SDS011;24661;53.566;9.910;2022-10-31T06:42:25;46.17;;;23.80;;
38901;SDS011;24661;53.566;9.910;2022-10-31T06:44:51;55.83;;;23.47;;
38901;SDS011;24661;53.566;9.910;2022-10-31T06:47:17;50.53;;;22.83;;
38901;SDS011;24661;53.566;9.910;2022-10-31T06:49:42;49.10;;;23.87;;
38901;SDS011;24661;53.566;9.910;2022-10-31T06:52:08;77.93;;;27.60;;
38901;SDS011;24661;53.566;9.910;2022-10-31T06:54:33;46.80;;;23.37;;
38901;SDS011;24661;53.566;9.910;2022-10-31T06:56:59;48.13;;;23.30;;
38901;SDS011;24661;53.566;9.910;2022-10-31T06:59:24;45.43;;;22.07;;
38901;SDS011;24661;53.566;9.910;2022-10-31T07:01:50;39.60;;;20.27;;
38901;SDS011;24661;53.566;9.910;2022-10-31T07:04:15;58.73;;;21.77;;
38901;SDS011;24661;53.566;9.910;2022-10-31T07:06:41;41.80;;;21.30;;
38901;SDS011;24661;53.566;9.910;2022-10-31T07:09:06;33.03;;;19.50;;
38901;SDS011;24661;53.566;9.910;2022-10-31T07:11:32;40.23;;;20.47;;
38901;SDS011;24661;53.566;9.910;2022-10-31T07:13:58;31.63;;;19.57;;
38901;SDS011;24661;53.566;9.910;2022-10-31T07:16:23;33.20;;;18.70;;
38901;SDS011;24661;53.566;9.910;2022-10-31T07:18:49;45.57;;;18.77;;
38901;SDS011;24661;53.566;9.910;2022-10-31T07:21:15;36.73;;;17.47;;
38901;SDS011;24661;53.566;9.910;2022-10-31T07:23:40;74.53;;;19.80;;
38901;SDS011;24661;53.566;9.910;2022-10-31T07:26:07;44.93;;;16.90;;
38901;SDS011;24661;53.566;9.910;2022-10-31T07:28:34;57.57;;;17.77;;
38901;SDS011;24661;53.566;9.910;2022-10-31T07:30:59;49.27;;;16.57;;
38901;SDS011;24661;53.566;9.910;2022-10-31T07:33:25;50.43;;;18.73;;
38901;SDS011;24661;53.566;9.910;2022-10-31T07:35:51;48.03;;;19.27;;
38901;SDS011;24661;53.566;9.910;2022-10-31T07:38:17;28.83;;;17.00;;
38901;SDS011;24661;53.566;9.910;2022-10-31T07:40:42;47.43;;;17.97;;
38901;SDS011;24661;53.566;9.910;2022-10-31T07:43:09;33.90;;;17.03;;
38901;SDS011;24661;53.566;9.910;2022-10-31T07:45:36;49.63;;;16.80;;
38901;SDS011;24661;53.566;9.910;2022-10-31T07:48:02;50.50;;;17.83;;
38901;SDS011;24661;53.566;9.910;2022-10-31T07:50:30;30.90;;;16.93;;
38901;SDS011;24661;53.566;9.910;2022-10-31T07:53:09;36.70;;;16.80;;
38901;SDS011;24661;53.566;9.910;2022-10-31T07:55:36;57.83;;;18.97;;
38901;SDS011;24661;53.566;9.910;2022-10-31T07:58:02;38.77;;;15.70;;
38901;SDS011;24661;53.566;9.910;2022-10-31T08:00:30;30.67;;;15.60;;
38901;SDS011;24661;53.566;9.910;2022-10-31T08:03:01;38.00;;;15.17;;
38901;SDS011;24661;53.566;9.910;2022-10-31T08:05:28;30.30;;;14.80;;
38901;SDS011;24661;53.566;9.910;2022-10-31T08:07:55;48.70;;;17.73;;
38901;SDS011;24661;53.566;9.910;2022-10-31T08:10:21;24.90;;;14.23;;
38901;SDS011;24661;53.566;9.910;2022-10-31T08:12:47;34.70;;;14.63;;
38901;SDS011;24661;53.566;9.910;2022-10-31T08:15:19;31.73;;;13.13;;
38901;SDS011;24661;53.566;9.910;2022-10-31T08:17:44;32.67;;;15.27;;
38901;SDS011;24661;53.566;9.910;2022-10-31T08:20:10;24.73;;;15.27;;
38901;SDS011;24661;53.566;9.910;2022-10-31T08:22:36;20.47;;;13.97;;
38901;SDS011;24661;53.566;9.910;2022-10-31T08:25:01;36.50;;;16.07;;
38901;SDS011;24661;53.566;9.910;2022-10-31T08:27:27;53.70;;;17.57;;
38901;SDS011;24661;53.566;9.910;2022-10-31T08:29:52;20.53;;;12.83;;
38901;SDS011;24661;53.566;9.910;2022-10-31T08:32:18;24.13;;;13.50;;
38901;SDS011;24661;53.566;9.910;2022-10-31T08:34:43;26.17;;;15.03;;
38901;SDS011;24661;53.566;9.910;2022-10-31T08:37:09;18.37;;;12.57;;
38901;SDS011;24661;53.566;9.910;2022-10-31T08:39:35;39.70;;;13.93;;
38901;SDS011;24661;53.566;9.910;2022-10-31T08:42:00;19.97;;;13.57;;
38901;SDS011;24661;53.566;9.910;2022-10-31T08:44:26;59.23;;;17.73;;
38901;SDS011;24661;53.566;9.910;2022-10-31T08:46:51;17.87;;;13.17;;
38901;SDS011;24661;53.566;9.910;2022-10-31T08:49:18;23.77;;;13.47;;
38901;SDS011;24661;53.566;9.910;2022-10-31T08:51:46;27.73;;;15.43;;
38901;SDS011;24661;53.566;9.910;2022-10-31T08:54:12;26.20;;;17.90;;
38901;SDS011;24661;53.566;9.910;2022-10-31T08:56:39;34.57;;;16.53;;
38901;SDS011;24661;53.566;9.910;2022-10-31T08:59:05;31.23;;;15.13;;
38901;SDS011;24661;53.566;9.910;2022-10-31T09:01:30;33.87;;;16.43;;
38901;SDS011;24661;53.566;9.910;2022-10-31T09:03:56;42.23;;;17.63;;
38901;SDS011;24661;53.566;9.910;2022-10-31T09:06:21;36.03;;;17.53;;
38901;SDS011;24661;53.566;9.910;2022-10-31T09:08:47;45.23;;;18.77;;
38901;SDS011;24661;53.566;9.910;2022-10-31T09:11:12;22.93;;;15.50;;
38901;SDS011;24661;53.566;9.910;2022-10-31T09:13:38;28.50;;;16.83;;
38901;SDS011;24661;53.566;9.910;2022-10-31T09:16:04;59.57;;;19.30;;
38901;SDS011;24661;53.566;9.910;2022-10-31T09:18:30;32.97;;;17.07;;
38901;SDS011;24661;53.566;9.910;2022-10-31T09:20:57;27.70;;;17.27;;
38901;SDS011;24661;53.566;9.910;2022-10-31T09:23:24;30.50;;;16.23;;
38901;SDS011;24661;53.566;9.910;2022-10-31T09:25:50;35.10;;;17.37;;
38901;SDS011;24661;53.566;9.910;2022-10-31T09:28:18;33.90;;;17.67;;
38901;SDS011;24661;53.566;9.910;2022-10-31T09:30:49;38.47;;;17.70;;
38901;SDS011;24661;53.566;9.910;2022-10-31T09:33:17;28.57;;;16.93;;
38901;SDS011;24661;53.566;9.910;2022-10-31T09:35:43;26.73;;;15.70;;
38901;SDS011;24661;53.566;9.910;2022-10-31T09:38:09;31.30;;;16.33;;
38901;SDS011;24661;53.566;9.910;2022-10-31T09:43:14;25.17;;;15.47;;
38901;SDS011;24661;53.566;9.910;2022-10-31T09:51:39;24.73;;;16.50;;
38901;SDS011;24661;53.566;9.910;2022-10-31T09:56:42;34.53;;;17.07;;
38901;SDS011;24661;53.566;9.910;2022-10-31T09:59:16;31.90;;;16.77;;
38901;SDS011;24661;53.566;9.910;2022-10-31T10:01:58;21.27;;;14.37;;
38901;SDS011;24661;53.566;9.910;2022-10-31T10:04:34;25.47;;;16.77;;
38901;SDS011;24661;53.566;9.910;2022-10-31T10:09:51;39.80;;;23.33;;
38901;SDS011;24661;53.566;9.910;2022-10-31T10:15:16;29.27;;;18.30;;
38901;SDS011;24661;53.566;9.910;2022-10-31T10:23:23;34.97;;;19.07;;
38901;SDS011;24661;53.566;9.910;2022-10-31T10:26:01;35.37;;;18.53;;
38901;SDS011;24661;53.566;9.910;2022-10-31T10:28:47;36.73;;;19.13;;
38901;SDS011;24661;53.566;9.910;2022-10-31T10:31:30;27.83;;;15.97;;
38901;SDS011;24661;53.566;9.910;2022-10-31T10:34:17;34.10;;;18.23;;
38901;SDS011;24661;53.566;9.910;2022-10-31T10:36:50;22.83;;;15.23;;
38901;SDS011;24661;53.566;9.910;2022-10-31T10:39:25;36.53;;;19.87;;
38901;SDS011;24661;53.566;9.910;2022-10-31T10:41:57;29.07;;;16.47;;
38901;SDS011;24661;53.566;9.910;2022-10-31T10:44:47;26.10;;;15.37;;
38901;SDS011;24661;53.566;9.910;2022-10-31T10:47:36;26.23;;;15.87;;
38901;SDS011;24661;53.566;9.910;2022-10-31T10:52:46;24.63;;;14.73;;
38901;SDS011;24661;53.566;9.910;2022-10-31T10:56:00;28.70;;;15.70;;
38901;SDS011;24661;53.566;9.910;2022-10-31T10:58:35;22.90;;;14.53;;
38901;SDS011;24661;53.566;9.910;2022-10-31T11:01:08;22.70;;;14.07;;
38901;SDS011;24661;53.566;9.910;2022-10-31T11:03:39;22.77;;;14.37;;
38901;SDS011;24661;53.566;9.910;2022-10-31T11:06:15;29.83;;;16.60;;
38901;SDS011;24661;53.566;9.910;2022-10-31T11:08:47;31.27;;;17.70;;
38901;SDS011;24661;53.566;9.910;2022-10-31T11:13:42;29.27;;;16.83;;
38901;SDS011;24661;53.566;9.910;2022-10-31T11:16:12;26.27;;;15.33;;
38901;SDS011;24661;53.566;9.910;2022-10-31T11:18:44;27.97;;;16.07;;
38901;SDS011;24661;53.566;9.910;2022-10-31T11:21:21;28.33;;;16.97;;
38901;SDS011;24661;53.566;9.910;2022-10-31T11:24:11;30.63;;;17.30;;
38901;SDS011;24661;53.566;9.910;2022-10-31T11:26:42;28.97;;;17.10;;
38901;SDS011;24661;53.566;9.910;2022-10-31T11:29:22;38.90;;;21.63;;
38901;SDS011;24661;53.566;9.910;2022-10-31T11:31:52;43.17;;;22.73;;
38901;SDS011;24661;53.566;9.910;2022-10-31T11:36:52;58.30;;;27.00;;
38901;SDS011;24661;53.566;9.910;2022-10-31T11:39:22;44.53;;;23.37;;
38901;SDS011;24661;53.566;9.910;2022-10-31T11:41:49;42.20;;;24.23;;
38901;SDS011;24661;53.566;9.910;2022-10-31T11:44:18;41.73;;;24.50;;
38901;SDS011;24661;53.566;9.910;2022-10-31T11:46:49;46.87;;;24.30;;
38901;SDS011;24661;53.566;9.910;2022-10-31T11:52:05;48.30;;;26.87;;
38901;SDS011;24661;53.566;9.910;2022-10-31T11:57:30;45.47;;;27.33;;
38901;SDS011;24661;53.566;9.910;2022-10-31T11:59:59;52.87;;;28.70;;
38901;SDS011;24661;53.566;9.910;2022-10-31T12:02:26;49.80;;;27.37;;
38901;SDS011;24661;53.566;9.910;2022-10-31T12:04:55;46.93;;;25.73;;
38901;SDS011;24661;53.566;9.910;2022-10-31T12:07:36;62.47;;;32.90;;
38901;SDS011;24661;53.566;9.910;2022-10-31T12:10:02;54.97;;;27.93;;
38901;SDS011;24661;53.566;9.910;2022-10-31T12:15:25;57.77;;;27.67;;
38901;SDS011;24661;53.566;9.910;2022-10-31T12:21:02;52.17;;;27.77;;
38901;SDS011;24661;53.566;9.910;2022-10-31T12:24:04;52.50;;;27.57;;
38901;SDS011;24661;53.566;9.910;2022-10-31T12:35:49;43.17;;;23.37;;
38901;SDS011;24661;53.566;9.910;2022-10-31T12:52:06;36.27;;;23.73;;
38901;SDS011;24661;53.566;9.910;2022-10-31T12:55:11;35.43;;;22.83;;
38901;SDS011;24661;53.566;9.910;2022-10-31T12:58:07;35.10;;;22.17;;
38901;SDS011;24661;53.566;9.910;2022-10-31T13:00:40;37.03;;;23.30;;
38901;SDS011;24661;53.566;9.910;2022-10-31T13:05:59;35.27;;;23.17;;
38901;SDS011;24661;53.566;9.910;2022-10-31T13:08:34;40.17;;;23.50;;
38901;SDS011;24661;53.566;9.910;2022-10-31T13:11:12;33.77;;;21.80;;
38901;SDS011;24661;53.566;9.910;2022-10-31T13:16:41;27.07;;;19.60;;
38901;SDS011;24661;53.566;9.910;2022-10-31T13:19:14;35.43;;;21.30;;
38901;SDS011;24661;53.566;9.910;2022-10-31T13:27:33;32.93;;;20.07;;
38901;SDS011;24661;53.566;9.910;2022-10-31T13:30:03;33.37;;;18.87;;
38901;SDS011;24661;53.566;9.910;2022-10-31T13:36:21;29.13;;;19.67;;
38901;SDS011;24661;53.566;9.910;2022-10-31T13:38:51;32.10;;;20.20;;
38901;SDS011;24661;53.566;9.910;2022-10-31T13:44:22;30.97;;;16.40;;
38901;SDS011;24661;53.566;9.910;2022-10-31T13:46:51;21.83;;;14.70;;
38901;SDS011;24661;53.566;9.910;2022-10-31T13:54:38;20.83;;;13.23;;
38901;SDS011;24661;53.566;9.910;2022-10-31T13:59:38;19.07;;;13.50;;
38901;SDS011;24661;53.566;9.910;2022-10-31T14:02:12;22.33;;;13.80;;
38901;SDS011;24661;53.566;9.910;2022-10-31T14:04:48;17.20;;;12.43;;
38901;SDS011;24661;53.566;9.910;2022-10-31T14:07:20;23.13;;;13.67;;
38901;SDS011;24661;53.566;9.910;2022-10-31T14:13:02;23.13;;;14.43;;
38901;SDS011;24661;53.566;9.910;2022-10-31T14:17:54;22.43;;;14.07;;
38901;SDS011;24661;53.566;9.910;2022-10-31T14:22:53;24.73;;;15.77;;
38901;SDS011;24661;53.566;9.910;2022-10-31T14:28:01;24.83;;;14.93;;
38901;SDS011;24661;53.566;9.910;2022-10-31T14:31:00;19.33;;;14.33;;
38901;SDS011;24661;53.566;9.910;2022-10-31T14:33:29;20.63;;;12.33;;
38901;SDS011;24661;53.566;9.910;2022-10-31T14:36:10;20.60;;;13.63;;
38901;SDS011;24661;53.566;9.910;2022-10-31T14:38:52;18.90;;;13.17;;
38901;SDS011;24661;53.566;9.910;2022-10-31T14:47:28;24.73;;;13.87;;
38901;SDS011;24661;53.566;9.910;2022-10-31T14:53:14;26.63;;;14.30;;
38901;SDS011;24661;53.566;9.910;2022-10-31T14:55:49;23.30;;;12.80;;
38901;SDS011;24661;53.566;9.910;2022-10-31T15:05:01;21.50;;;14.40;;
38901;SDS011;24661;53.566;9.910;2022-10-31T15:07:35;21.57;;;12.60;;
38901;SDS011;24661;53.566;9.910;2022-10-31T15:10:19;22.53;;;12.73;;
38901;SDS011;24661;53.566;9.910;2022-10-31T15:12:48;21.87;;;12.73;;
38901;SDS011;24661;53.566;9.910;2022-10-31T15:15:18;21.47;;;12.10;;
38901;SDS011;24661;53.566;9.910;2022-10-31T15:17:51;22.23;;;13.17;;
38901;SDS011;24661;53.566;9.910;2022-10-31T15:20:20;23.80;;;13.10;;
38901;SDS011;24661;53.566;9.910;2022-10-31T15:22:48;26.43;;;13.00;;
38901;SDS011;24661;53.566;9.910;2022-10-31T15:25:17;24.20;;;12.73;;
38901;SDS011;24661;53.566;9.910;2022-10-31T15:27:44;21.80;;;12.17;;
38901;SDS011;24661;53.566;9.910;2022-10-31T15:32:45;19.30;;;12.87;;
38901;SDS011;24661;53.566;9.910;2022-10-31T15:35:14;21.93;;;12.97;;
38901;SDS011;24661;53.566;9.910;2022-10-31T15:37:46;19.17;;;12.07;;
38901;SDS011;24661;53.566;9.910;2022-10-31T15:40:14;23.33;;;12.37;;
38901;SDS011;24661;53.566;9.910;2022-10-31T15:42:41;21.80;;;11.90;;
38901;SDS011;24661;53.566;9.910;2022-10-31T15:47:34;25.70;;;15.43;;
38901;SDS011;24661;53.566;9.910;2022-10-31T15:50:01;22.53;;;14.10;;
38901;SDS011;24661;53.566;9.910;2022-10-31T15:57:33;21.07;;;13.07;;
38901;SDS011;24661;53.566;9.910;2022-10-31T16:00:20;22.90;;;13.20;;
38901;SDS011;24661;53.566;9.910;2022-10-31T16:02:49;24.83;;;14.33;;
38901;SDS011;24661;53.566;9.910;2022-10-31T16:05:15;26.83;;;13.93;;
38901;SDS011;24661;53.566;9.910;2022-10-31T16:07:49;23.07;;;13.63;;
38901;SDS011;24661;53.566;9.910;2022-10-31T16:10:26;20.87;;;14.07;;
38901;SDS011;24661;53.566;9.910;2022-10-31T16:12:52;24.73;;;14.90;;
38901;SDS011;24661;53.566;9.910;2022-10-31T16:15:19;28.10;;;16.50;;
38901;SDS011;24661;53.566;9.910;2022-10-31T16:17:48;31.10;;;16.47;;
38901;SDS011;24661;53.566;9.910;2022-10-31T16:20:19;26.77;;;16.17;;
38901;SDS011;24661;53.566;9.910;2022-10-31T16:22:53;24.77;;;14.83;;
38901;SDS011;24661;53.566;9.910;2022-10-31T16:25:39;30.93;;;17.20;;
38901;SDS011;24661;53.566;9.910;2022-10-31T16:28:11;28.70;;;16.03;;
38901;SDS011;24661;53.566;9.910;2022-10-31T16:30:42;26.80;;;15.50;;
38901;SDS011;24661;53.566;9.910;2022-10-31T16:36:01;24.10;;;14.73;;
38901;SDS011;24661;53.566;9.910;2022-10-31T16:38:52;25.10;;;14.30;;
38901;SDS011;24661;53.566;9.910;2022-10-31T16:41:18;26.33;;;15.40;;
38901;SDS011;24661;53.566;9.910;2022-10-31T16:43:44;24.43;;;14.87;;
38901;SDS011;24661;53.566;9.910;2022-10-31T16:46:14;30.87;;;15.93;;
38901;SDS011;24661;53.566;9.910;2022-10-31T16:48:43;28.93;;;15.77;;
38901;SDS011;24661;53.566;9.910;2022-10-31T16:51:09;25.77;;;14.43;;
38901;SDS011;24661;53.566;9.910;2022-10-31T16:53:34;27.17;;;15.13;;
38901;SDS011;24661;53.566;9.910;2022-10-31T16:56:02;30.93;;;15.10;;
38901;SDS011;24661;53.566;9.910;2022-10-31T16:58:29;24.33;;;13.57;;
38901;SDS011;24661;53.566;9.910;2022-10-31T17:00:58;28.70;;;14.23;;
38901;SDS011;24661;53.566;9.910;2022-10-31T17:03:25;25.93;;;13.80;;
38901;SDS011;24661;53.566;9.910;2022-10-31T17:05:51;30.43;;;14.67;;
38901;SDS011;24661;53.566;9.910;2022-10-31T17:08:16;24.63;;;14.13;;
38901;SDS011;24661;53.566;9.910;2022-10-31T17:10:42;24.30;;;14.23;;
38901;SDS011;24661;53.566;9.910;2022-10-31T17:13:13;29.73;;;14.50;;